sensor_id;sensor_type;location;lat;lon;timestamp;P1;durP1;ratioP1;P2;durP2;ratioP2
36441;SDS011;73131;50.820;16.274;2024-01-07T00:02:34;15.65;;;8.07;;
36441;SDS011;73131;50.820;16.274;2024-01-07T00:05:36;15.82;;;7.70;;
36441;SDS011;73131;50.820;16.274;2024-01-07T00:08:40;13.85;;;7.38;;
36441;SDS011;73131;50.820;16.274;2024-01-07T00:11:41;14.35;;;7.72;;
36441;SDS011;73131;50.820;16.274;2024-01-07T00:14:45;13.95;;;7.70;;
36441;SDS011;73131;50.820;16.274;2024-01-07T00:17:48;14.18;;;7.55;;
36441;SDS011;73131;50.820;16.274;2024-01-07T00:20:50;11.95;;;7.40;;
36441;SDS011;73131;50.820;16.274;2024-01-07T00:23:50;11.63;;;6.70;;
36441;SDS011;73131;50.820;16.274;2024-01-07T00:26:52;12.05;;;6.43;;
36441;SDS011;73131;50.820;16.274;2024-01-07T00:29:55;11.82;;;7.30;;
36441;SDS011;73131;50.820;16.274;2024-01-07T00:32:59;12.73;;;7.28;;
36441;SDS011;73131;50.820;16.274;2024-01-07T00:36:02;13.73;;;7.10;;
36441;SDS011;73131;50.820;16.274;2024-01-07T00:39:08;12.00;;;6.40;;
36441;SDS011;73131;50.820;16.274;2024-01-07T00:42:11;15.60;;;7.15;;
36441;SDS011;73131;50.820;16.274;2024-01-07T00:45:15;16.45;;;6.63;;
36441;SDS011;73131;50.820;16.274;2024-01-07T00:48:16;11.32;;;6.15;;
36441;SDS011;73131;50.820;16.274;2024-01-07T00:51:17;12.60;;;6.70;;
36441;SDS011;73131;50.820;16.274;2024-01-07T00:54:20;15.80;;;7.00;;
36441;SDS011;73131;50.820;16.274;2024-01-07T00:57:24;11.48;;;6.63;;
36441;SDS011;73131;50.820;16.274;2024-01-07T01:00:27;13.60;;;6.85;;
36441;SDS011;73131;50.820;16.274;2024-01-07T01:03:29;9.15;;;4.97;;
36441;SDS011;73131;50.820;16.274;2024-01-07T01:06:34;10.57;;;5.70;;
36441;SDS011;73131;50.820;16.274;2024-01-07T01:09:35;10.23;;;5.75;;
36441;SDS011;73131;50.820;16.274;2024-01-07T01:12:39;13.57;;;6.00;;
36441;SDS011;73131;50.820;16.274;2024-01-07T01:15:40;15.75;;;6.50;;
36441;SDS011;73131;50.820;16.274;2024-01-07T01:18:41;12.02;;;6.13;;
36441;SDS011;73131;50.820;16.274;2024-01-07T01:21:47;11.68;;;6.03;;
36441;SDS011;73131;50.820;16.274;2024-01-07T01:24:48;9.05;;;5.53;;
36441;SDS011;73131;50.820;16.274;2024-01-07T01:27:49;12.82;;;6.55;;
36441;SDS011;73131;50.820;16.274;2024-01-07T01:30:50;12.45;;;6.35;;
36441;SDS011;73131;50.820;16.274;2024-01-07T01:33:51;11.25;;;5.93;;
36441;SDS011;73131;50.820;16.274;2024-01-07T01:36:54;13.10;;;6.20;;
36441;SDS011;73131;50.820;16.274;2024-01-07T01:39:55;13.15;;;6.22;;
36441;SDS011;73131;50.820;16.274;2024-01-07T01:42:56;10.25;;;5.35;;
36441;SDS011;73131;50.820;16.274;2024-01-07T01:46:01;16.73;;;6.68;;
36441;SDS011;73131;50.820;16.274;2024-01-07T01:49:07;10.93;;;5.70;;
36441;SDS011;73131;50.820;16.274;2024-01-07T01:52:12;12.38;;;6.90;;
36441;SDS011;73131;50.820;16.274;2024-01-07T01:55:14;11.82;;;6.07;;
36441;SDS011;73131;50.820;16.274;2024-01-07T01:58:15;13.02;;;6.85;;
36441;SDS011;73131;50.820;16.274;2024-01-07T02:01:21;11.70;;;6.30;;
36441;SDS011;73131;50.820;16.274;2024-01-07T02:04:26;11.02;;;5.70;;
36441;SDS011;73131;50.820;16.274;2024-01-07T02:07:27;10.00;;;6.00;;
36441;SDS011;73131;50.820;16.274;2024-01-07T02:10:32;13.48;;;6.15;;
36441;SDS011;73131;50.820;16.274;2024-01-07T02:13:36;9.73;;;6.10;;
36441;SDS011;73131;50.820;16.274;2024-01-07T02:16:37;13.07;;;6.43;;
36441;SDS011;73131;50.820;16.274;2024-01-07T02:19:43;10.88;;;5.90;;
36441;SDS011;73131;50.820;16.274;2024-01-07T02:22:47;12.85;;;5.32;;
36441;SDS011;73131;50.820;16.274;2024-01-07T02:28:56;10.00;;;6.10;;
36441;SDS011;73131;50.820;16.274;2024-01-07T02:31:59;12.18;;;5.88;;
36441;SDS011;73131;50.820;16.274;2024-01-07T02:35:00;14.13;;;6.95;;
36441;SDS011;73131;50.820;16.274;2024-01-07T02:38:04;13.90;;;6.57;;
36441;SDS011;73131;50.820;16.274;2024-01-07T02:41:05;13.23;;;6.80;;
36441;SDS011;73131;50.820;16.274;2024-01-07T02:44:06;14.35;;;6.57;;
36441;SDS011;73131;50.820;16.274;2024-01-07T02:47:07;15.15;;;7.15;;
36441;SDS011;73131;50.820;16.274;2024-01-07T02:50:08;10.55;;;5.65;;
36441;SDS011;73131;50.820;16.274;2024-01-07T02:53:12;12.13;;;6.57;;
36441;SDS011;73131;50.820;16.274;2024-01-07T02:56:14;11.63;;;6.53;;
36441;SDS011;73131;50.820;16.274;2024-01-07T02:59:16;11.73;;;6.38;;
36441;SDS011;73131;50.820;16.274;2024-01-07T03:02:16;14.18;;;6.72;;
36441;SDS011;73131;50.820;16.274;2024-01-07T03:05:18;11.77;;;6.88;;
36441;SDS011;73131;50.820;16.274;2024-01-07T03:08:21;11.82;;;6.57;;
36441;SDS011;73131;50.820;16.274;2024-01-07T03:11:22;10.18;;;6.55;;
36441;SDS011;73131;50.820;16.274;2024-01-07T03:14:28;9.55;;;5.97;;
36441;SDS011;73131;50.820;16.274;2024-01-07T03:17:31;12.15;;;6.50;;
36441;SDS011;73131;50.820;16.274;2024-01-07T03:20:32;11.43;;;5.93;;
36441;SDS011;73131;50.820;16.274;2024-01-07T03:23:36;11.70;;;7.40;;
36441;SDS011;73131;50.820;16.274;2024-01-07T03:26:39;13.73;;;6.00;;
36441;SDS011;73131;50.820;16.274;2024-01-07T03:29:40;14.60;;;7.15;;
36441;SDS011;73131;50.820;16.274;2024-01-07T03:32:44;12.85;;;6.18;;
36441;SDS011;73131;50.820;16.274;2024-01-07T03:35:45;8.98;;;5.97;;
36441;SDS011;73131;50.820;16.274;2024-01-07T03:38:46;12.10;;;6.70;;
36441;SDS011;73131;50.820;16.274;2024-01-07T03:41:47;11.70;;;5.72;;
36441;SDS011;73131;50.820;16.274;2024-01-07T03:44:48;12.77;;;7.22;;
36441;SDS011;73131;50.820;16.274;2024-01-07T03:47:51;13.60;;;6.10;;
36441;SDS011;73131;50.820;16.274;2024-01-07T03:50:52;12.38;;;5.78;;
36441;SDS011;73131;50.820;16.274;2024-01-07T03:53:56;12.77;;;7.47;;
36441;SDS011;73131;50.820;16.274;2024-01-07T03:56:57;8.45;;;7.13;;
36441;SDS011;73131;50.820;16.274;2024-01-07T03:59:58;11.00;;;6.13;;
36441;SDS011;73131;50.820;16.274;2024-01-07T04:02:59;11.15;;;5.38;;
36441;SDS011;73131;50.820;16.274;2024-01-07T04:06:01;11.05;;;6.22;;
36441;SDS011;73131;50.820;16.274;2024-01-07T04:09:02;32.75;;;14.93;;
36441;SDS011;73131;50.820;16.274;2024-01-07T04:12:05;14.55;;;7.97;;
36441;SDS011;73131;50.820;16.274;2024-01-07T04:15:06;12.98;;;7.05;;
36441;SDS011;73131;50.820;16.274;2024-01-07T04:18:10;15.57;;;7.95;;
36441;SDS011;73131;50.820;16.274;2024-01-07T04:21:12;12.88;;;7.25;;
36441;SDS011;73131;50.820;16.274;2024-01-07T04:24:16;12.10;;;7.32;;
36441;SDS011;73131;50.820;16.274;2024-01-07T04:27:19;16.33;;;7.57;;
36441;SDS011;73131;50.820;16.274;2024-01-07T04:30:22;12.20;;;6.95;;
36441;SDS011;73131;50.820;16.274;2024-01-07T04:33:23;13.88;;;7.20;;
36441;SDS011;73131;50.820;16.274;2024-01-07T04:36:24;13.57;;;6.97;;
36441;SDS011;73131;50.820;16.274;2024-01-07T04:39:28;11.27;;;7.60;;
36441;SDS011;73131;50.820;16.274;2024-01-07T04:42:31;9.40;;;5.90;;
36441;SDS011;73131;50.820;16.274;2024-01-07T04:45:33;11.75;;;5.78;;
36441;SDS011;73131;50.820;16.274;2024-01-07T04:48:38;13.32;;;6.47;;
36441;SDS011;73131;50.820;16.274;2024-01-07T04:51:39;15.23;;;7.55;;
36441;SDS011;73131;50.820;16.274;2024-01-07T04:54:45;11.85;;;6.38;;
36441;SDS011;73131;50.820;16.274;2024-01-07T04:57:46;11.07;;;6.88;;
36441;SDS011;73131;50.820;16.274;2024-01-07T05:00:50;15.68;;;9.15;;
36441;SDS011;73131;50.820;16.274;2024-01-07T05:03:51;11.82;;;6.95;;
36441;SDS011;73131;50.820;16.274;2024-01-07T05:06:57;12.80;;;7.40;;
36441;SDS011;73131;50.820;16.274;2024-01-07T05:09:58;10.68;;;6.80;;
36441;SDS011;73131;50.820;16.274;2024-01-07T05:13:03;10.25;;;6.60;;
36441;SDS011;73131;50.820;16.274;2024-01-07T05:16:06;12.70;;;6.65;;
36441;SDS011;73131;50.820;16.274;2024-01-07T05:19:07;9.88;;;6.55;;
36441;SDS011;73131;50.820;16.274;2024-01-07T05:22:08;10.40;;;5.97;;
36441;SDS011;73131;50.820;16.274;2024-01-07T05:25:12;8.88;;;5.53;;
36441;SDS011;73131;50.820;16.274;2024-01-07T05:28:15;10.20;;;5.63;;
36441;SDS011;73131;50.820;16.274;2024-01-07T05:31:20;10.07;;;5.43;;
36441;SDS011;73131;50.820;16.274;2024-01-07T05:34:21;10.43;;;6.90;;
36441;SDS011;73131;50.820;16.274;2024-01-07T05:37:22;10.27;;;5.00;;
36441;SDS011;73131;50.820;16.274;2024-01-07T05:40:23;11.68;;;6.07;;
36441;SDS011;73131;50.820;16.274;2024-01-07T05:43:24;11.30;;;6.63;;
36441;SDS011;73131;50.820;16.274;2024-01-07T05:46:30;11.60;;;7.10;;
36441;SDS011;73131;50.820;16.274;2024-01-07T05:49:34;9.55;;;6.15;;
36441;SDS011;73131;50.820;16.274;2024-01-07T05:52:37;13.55;;;6.55;;
36441;SDS011;73131;50.820;16.274;2024-01-07T05:55:40;8.93;;;6.35;;
36441;SDS011;73131;50.820;16.274;2024-01-07T05:58:41;9.63;;;5.57;;
36441;SDS011;73131;50.820;16.274;2024-01-07T06:01:45;11.00;;;5.30;;
36441;SDS011;73131;50.820;16.274;2024-01-07T06:04:46;10.85;;;5.45;;
36441;SDS011;73131;50.820;16.274;2024-01-07T06:07:47;10.23;;;5.68;;
36441;SDS011;73131;50.820;16.274;2024-01-07T06:10:48;8.88;;;5.80;;
36441;SDS011;73131;50.820;16.274;2024-01-07T06:13:49;7.32;;;4.50;;
36441;SDS011;73131;50.820;16.274;2024-01-07T06:16:50;8.82;;;5.85;;
36441;SDS011;73131;50.820;16.274;2024-01-07T06:19:53;9.75;;;4.93;;
36441;SDS011;73131;50.820;16.274;2024-01-07T06:22:54;8.82;;;5.82;;
36441;SDS011;73131;50.820;16.274;2024-01-07T06:25:58;9.82;;;5.38;;
36441;SDS011;73131;50.820;16.274;2024-01-07T06:29:05;9.38;;;6.30;;
36441;SDS011;73131;50.820;16.274;2024-01-07T06:32:10;8.77;;;5.75;;
36441;SDS011;73131;50.820;16.274;2024-01-07T06:35:14;11.35;;;6.47;;
36441;SDS011;73131;50.820;16.274;2024-01-07T06:38:15;9.15;;;5.93;;
36441;SDS011;73131;50.820;16.274;2024-01-07T06:41:18;10.90;;;6.82;;
36441;SDS011;73131;50.820;16.274;2024-01-07T06:44:20;11.50;;;6.53;;
36441;SDS011;73131;50.820;16.274;2024-01-07T06:47:20;10.02;;;6.00;;
36441;SDS011;73131;50.820;16.274;2024-01-07T06:50:24;11.98;;;6.63;;
36441;SDS011;73131;50.820;16.274;2024-01-07T06:53:25;12.93;;;7.28;;
36441;SDS011;73131;50.820;16.274;2024-01-07T06:56:26;10.07;;;6.07;;
36441;SDS011;73131;50.820;16.274;2024-01-07T06:59:27;11.15;;;7.47;;
36441;SDS011;73131;50.820;16.274;2024-01-07T07:02:28;9.65;;;6.28;;
36441;SDS011;73131;50.820;16.274;2024-01-07T07:05:29;13.30;;;7.60;;
36441;SDS011;73131;50.820;16.274;2024-01-07T07:08:31;13.70;;;7.63;;
36441;SDS011;73131;50.820;16.274;2024-01-07T07:11:34;9.15;;;5.75;;
36441;SDS011;73131;50.820;16.274;2024-01-07T07:14:35;13.95;;;7.07;;
36441;SDS011;73131;50.820;16.274;2024-01-07T07:20:42;10.25;;;5.90;;
36441;SDS011;73131;50.820;16.274;2024-01-07T07:23:42;8.77;;;6.05;;
36441;SDS011;73131;50.820;16.274;2024-01-07T07:26:44;10.25;;;6.50;;
36441;SDS011;73131;50.820;16.274;2024-01-07T07:29:47;13.27;;;6.53;;
36441;SDS011;73131;50.820;16.274;2024-01-07T07:32:48;10.50;;;6.40;;
36441;SDS011;73131;50.820;16.274;2024-01-07T07:35:49;9.82;;;6.80;;
36441;SDS011;73131;50.820;16.274;2024-01-07T07:38:52;9.20;;;5.40;;
36441;SDS011;73131;50.820;16.274;2024-01-07T07:41:53;10.32;;;5.93;;
36441;SDS011;73131;50.820;16.274;2024-01-07T07:44:57;10.77;;;6.18;;
36441;SDS011;73131;50.820;16.274;2024-01-07T07:47:58;9.88;;;6.10;;
36441;SDS011;73131;50.820;16.274;2024-01-07T07:50:59;9.18;;;5.78;;
36441;SDS011;73131;50.820;16.274;2024-01-07T07:54:02;8.65;;;5.80;;
36441;SDS011;73131;50.820;16.274;2024-01-07T07:57:04;9.60;;;6.43;;
36441;SDS011;73131;50.820;16.274;2024-01-07T08:00:12;9.30;;;5.57;;
36441;SDS011;73131;50.820;16.274;2024-01-07T08:03:14;10.57;;;5.70;;
36441;SDS011;73131;50.820;16.274;2024-01-07T08:06:15;9.60;;;5.30;;
36441;SDS011;73131;50.820;16.274;2024-01-07T08:09:20;8.77;;;5.65;;
36441;SDS011;73131;50.820;16.274;2024-01-07T08:12:20;10.25;;;6.57;;
36441;SDS011;73131;50.820;16.274;2024-01-07T08:15:22;11.57;;;7.00;;
36441;SDS011;73131;50.820;16.274;2024-01-07T08:18:23;8.77;;;5.70;;
36441;SDS011;73131;50.820;16.274;2024-01-07T08:21:26;11.02;;;5.32;;
36441;SDS011;73131;50.820;16.274;2024-01-07T08:24:27;9.40;;;5.35;;
36441;SDS011;73131;50.820;16.274;2024-01-07T08:27:28;11.70;;;5.07;;
36441;SDS011;73131;50.820;16.274;2024-01-07T08:30:30;11.98;;;6.60;;
36441;SDS011;73131;50.820;16.274;2024-01-07T08:33:31;9.05;;;6.05;;
36441;SDS011;73131;50.820;16.274;2024-01-07T08:36:35;9.65;;;5.53;;
36441;SDS011;73131;50.820;16.274;2024-01-07T08:39:39;8.98;;;5.45;;
36441;SDS011;73131;50.820;16.274;2024-01-07T08:42:39;9.18;;;5.10;;
36441;SDS011;73131;50.820;16.274;2024-01-07T08:45:42;8.68;;;4.95;;
36441;SDS011;73131;50.820;16.274;2024-01-07T08:48:43;11.27;;;6.00;;
36441;SDS011;73131;50.820;16.274;2024-01-07T08:51:44;9.07;;;4.47;;
36441;SDS011;73131;50.820;16.274;2024-01-07T08:54:45;10.15;;;5.88;;
36441;SDS011;73131;50.820;16.274;2024-01-07T08:57:46;12.32;;;7.35;;
36441;SDS011;73131;50.820;16.274;2024-01-07T09:00:49;8.18;;;5.07;;
36441;SDS011;73131;50.820;16.274;2024-01-07T09:03:50;8.70;;;5.15;;
36441;SDS011;73131;50.820;16.274;2024-01-07T09:06:53;10.60;;;6.53;;
36441;SDS011;73131;50.820;16.274;2024-01-07T09:09:57;9.77;;;5.88;;
36441;SDS011;73131;50.820;16.274;2024-01-07T09:13:03;9.85;;;5.63;;
36441;SDS011;73131;50.820;16.274;2024-01-07T09:16:05;11.50;;;5.00;;
36441;SDS011;73131;50.820;16.274;2024-01-07T09:19:07;9.93;;;5.47;;
36441;SDS011;73131;50.820;16.274;2024-01-07T09:22:08;10.65;;;6.25;;
36441;SDS011;73131;50.820;16.274;2024-01-07T09:25:09;9.30;;;4.63;;
36441;SDS011;73131;50.820;16.274;2024-01-07T09:28:10;7.57;;;5.00;;
36441;SDS011;73131;50.820;16.274;2024-01-07T09:31:11;10.25;;;5.55;;
36441;SDS011;73131;50.820;16.274;2024-01-07T09:34:12;8.98;;;5.40;;
36441;SDS011;73131;50.820;16.274;2024-01-07T09:37:13;24.00;;;8.70;;
36441;SDS011;73131;50.820;16.274;2024-01-07T09:40:17;10.68;;;5.05;;
36441;SDS011;73131;50.820;16.274;2024-01-07T09:43:19;8.13;;;4.75;;
36441;SDS011;73131;50.820;16.274;2024-01-07T09:46:21;12.63;;;6.03;;
36441;SDS011;73131;50.820;16.274;2024-01-07T09:49:24;8.65;;;5.40;;
36441;SDS011;73131;50.820;16.274;2024-01-07T09:52:25;9.00;;;5.65;;
36441;SDS011;73131;50.820;16.274;2024-01-07T09:55:27;7.25;;;5.47;;
36441;SDS011;73131;50.820;16.274;2024-01-07T09:58:34;7.95;;;4.38;;
36441;SDS011;73131;50.820;16.274;2024-01-07T10:04:41;7.85;;;5.30;;
36441;SDS011;73131;50.820;16.274;2024-01-07T10:07:44;8.52;;;4.45;;
36441;SDS011;73131;50.820;16.274;2024-01-07T10:10:45;6.80;;;4.80;;
36441;SDS011;73131;50.820;16.274;2024-01-07T10:13:48;7.30;;;3.95;;
36441;SDS011;73131;50.820;16.274;2024-01-07T10:16:52;5.95;;;3.88;;
36441;SDS011;73131;50.820;16.274;2024-01-07T10:19:53;6.43;;;3.50;;
36441;SDS011;73131;50.820;16.274;2024-01-07T10:22:54;7.85;;;4.20;;
36441;SDS011;73131;50.820;16.274;2024-01-07T10:25:58;8.35;;;4.38;;
36441;SDS011;73131;50.820;16.274;2024-01-07T10:28:59;4.82;;;2.90;;
36441;SDS011;73131;50.820;16.274;2024-01-07T10:32:00;5.13;;;2.85;;
36441;SDS011;73131;50.820;16.274;2024-01-07T10:35:04;5.97;;;3.17;;
36441;SDS011;73131;50.820;16.274;2024-01-07T10:38:06;5.22;;;2.53;;
36441;SDS011;73131;50.820;16.274;2024-01-07T10:41:09;6.93;;;3.38;;
36441;SDS011;73131;50.820;16.274;2024-01-07T10:44:12;7.07;;;3.20;;
36441;SDS011;73131;50.820;16.274;2024-01-07T10:47:13;5.72;;;2.78;;
36441;SDS011;73131;50.820;16.274;2024-01-07T10:50:18;6.55;;;2.20;;
36441;SDS011;73131;50.820;16.274;2024-01-07T10:53:20;4.15;;;1.77;;
36441;SDS011;73131;50.820;16.274;2024-01-07T10:56:24;4.05;;;2.13;;
36441;SDS011;73131;50.820;16.274;2024-01-07T10:59:30;6.13;;;3.22;;
36441;SDS011;73131;50.820;16.274;2024-01-07T11:02:47;4.35;;;1.90;;
36441;SDS011;73131;50.820;16.274;2024-01-07T11:06:06;3.80;;;2.10;;
36441;SDS011;73131;50.820;16.274;2024-01-07T11:09:23;4.22;;;1.98;;
36441;SDS011;73131;50.820;16.274;2024-01-07T11:12:55;4.25;;;1.95;;
36441;SDS011;73131;50.820;16.274;2024-01-07T11:15:58;3.67;;;1.50;;
36441;SDS011;73131;50.820;16.274;2024-01-07T11:18:59;3.10;;;2.25;;
36441;SDS011;73131;50.820;16.274;2024-01-07T11:25:28;4.20;;;1.60;;
36441;SDS011;73131;50.820;16.274;2024-01-07T11:31:45;5.50;;;2.20;;
36441;SDS011;73131;50.820;16.274;2024-01-07T11:34:49;4.57;;;2.92;;
36441;SDS011;73131;50.820;16.274;2024-01-07T11:37:59;5.70;;;2.53;;
36441;SDS011;73131;50.820;16.274;2024-01-07T11:41:00;3.53;;;2.22;;
36441;SDS011;73131;50.820;16.274;2024-01-07T11:44:06;3.60;;;2.20;;
36441;SDS011;73131;50.820;16.274;2024-01-07T11:47:12;4.85;;;2.83;;
36441;SDS011;73131;50.820;16.274;2024-01-07T11:50:16;5.53;;;3.15;;
36441;SDS011;73131;50.820;16.274;2024-01-07T11:53:20;5.55;;;2.83;;
36441;SDS011;73131;50.820;16.274;2024-01-07T11:56:26;5.65;;;3.13;;
36441;SDS011;73131;50.820;16.274;2024-01-07T11:59:29;7.07;;;3.20;;
36441;SDS011;73131;50.820;16.274;2024-01-07T12:02:32;6.20;;;3.03;;
36441;SDS011;73131;50.820;16.274;2024-01-07T12:05:36;8.25;;;3.55;;
36441;SDS011;73131;50.820;16.274;2024-01-07T12:08:37;5.00;;;2.63;;
36441;SDS011;73131;50.820;16.274;2024-01-07T12:11:38;5.80;;;3.50;;
36441;SDS011;73131;50.820;16.274;2024-01-07T12:14:40;5.53;;;2.95;;
36441;SDS011;73131;50.820;16.274;2024-01-07T12:17:41;6.78;;;2.60;;
36441;SDS011;73131;50.820;16.274;2024-01-07T12:20:54;6.38;;;3.40;;
36441;SDS011;73131;50.820;16.274;2024-01-07T12:24:00;5.30;;;2.72;;
36441;SDS011;73131;50.820;16.274;2024-01-07T12:27:07;7.72;;;2.72;;
36441;SDS011;73131;50.820;16.274;2024-01-07T12:30:10;7.82;;;2.80;;
36441;SDS011;73131;50.820;16.274;2024-01-07T12:33:12;7.80;;;3.40;;
36441;SDS011;73131;50.820;16.274;2024-01-07T12:36:24;6.80;;;3.20;;
36441;SDS011;73131;50.820;16.274;2024-01-07T12:39:30;8.02;;;2.85;;
36441;SDS011;73131;50.820;16.274;2024-01-07T12:42:33;4.90;;;2.55;;
36441;SDS011;73131;50.820;16.274;2024-01-07T12:45:37;7.25;;;4.13;;
36441;SDS011;73131;50.820;16.274;2024-01-07T12:48:38;6.18;;;4.10;;
36441;SDS011;73131;50.820;16.274;2024-01-07T12:51:39;6.28;;;3.00;;
36441;SDS011;73131;50.820;16.274;2024-01-07T12:54:42;9.45;;;4.07;;
36441;SDS011;73131;50.820;16.274;2024-01-07T12:57:47;6.82;;;3.80;;
36441;SDS011;73131;50.820;16.274;2024-01-07T13:00:50;6.40;;;4.18;;
36441;SDS011;73131;50.820;16.274;2024-01-07T13:03:52;6.45;;;3.85;;
36441;SDS011;73131;50.820;16.274;2024-01-07T13:06:53;5.38;;;2.92;;
36441;SDS011;73131;50.820;16.274;2024-01-07T13:09:54;9.52;;;4.68;;
36441;SDS011;73131;50.820;16.274;2024-01-07T13:13:00;7.80;;;4.20;;
36441;SDS011;73131;50.820;16.274;2024-01-07T13:16:04;7.97;;;3.65;;
36441;SDS011;73131;50.820;16.274;2024-01-07T13:19:07;10.40;;;4.25;;
36441;SDS011;73131;50.820;16.274;2024-01-07T13:22:11;10.23;;;5.32;;
36441;SDS011;73131;50.820;16.274;2024-01-07T13:25:13;9.70;;;4.72;;
36441;SDS011;73131;50.820;16.274;2024-01-07T13:28:19;8.55;;;3.70;;
36441;SDS011;73131;50.820;16.274;2024-01-07T13:31:24;7.70;;;4.10;;
36441;SDS011;73131;50.820;16.274;2024-01-07T13:34:26;7.95;;;4.03;;
36441;SDS011;73131;50.820;16.274;2024-01-07T13:37:27;7.15;;;3.80;;
36441;SDS011;73131;50.820;16.274;2024-01-07T13:40:28;8.60;;;3.90;;
36441;SDS011;73131;50.820;16.274;2024-01-07T13:43:29;8.23;;;4.00;;
36441;SDS011;73131;50.820;16.274;2024-01-07T13:46:32;9.57;;;4.20;;
36441;SDS011;73131;50.820;16.274;2024-01-07T13:49:33;11.73;;;5.38;;
36441;SDS011;73131;50.820;16.274;2024-01-07T13:52:38;10.82;;;4.95;;
36441;SDS011;73131;50.820;16.274;2024-01-07T13:55:39;7.95;;;4.40;;
36441;SDS011;73131;50.820;16.274;2024-01-07T13:58:40;7.22;;;4.07;;
36441;SDS011;73131;50.820;16.274;2024-01-07T14:01:42;8.40;;;4.35;;
36441;SDS011;73131;50.820;16.274;2024-01-07T14:04:46;7.10;;;4.35;;
36441;SDS011;73131;50.820;16.274;2024-01-07T14:07:48;15.23;;;8.05;;
36441;SDS011;73131;50.820;16.274;2024-01-07T14:10:52;9.05;;;5.15;;
36441;SDS011;73131;50.820;16.274;2024-01-07T14:13:53;8.88;;;4.90;;
36441;SDS011;73131;50.820;16.274;2024-01-07T14:16:54;11.43;;;4.45;;
36441;SDS011;73131;50.820;16.274;2024-01-07T14:19:55;8.30;;;4.25;;
36441;SDS011;73131;50.820;16.274;2024-01-07T14:22:56;11.27;;;5.50;;
36441;SDS011;73131;50.820;16.274;2024-01-07T14:25:57;10.27;;;5.32;;
36441;SDS011;73131;50.820;16.274;2024-01-07T14:28:59;9.18;;;4.63;;
36441;SDS011;73131;50.820;16.274;2024-01-07T14:32:02;9.95;;;4.88;;
36441;SDS011;73131;50.820;16.274;2024-01-07T14:35:05;8.38;;;4.80;;
36441;SDS011;73131;50.820;16.274;2024-01-07T14:38:15;10.95;;;4.60;;
36441;SDS011;73131;50.820;16.274;2024-01-07T14:41:19;10.38;;;5.43;;
36441;SDS011;73131;50.820;16.274;2024-01-07T14:44:20;8.48;;;4.60;;
36441;SDS011;73131;50.820;16.274;2024-01-07T14:47:21;11.00;;;4.38;;
36441;SDS011;73131;50.820;16.274;2024-01-07T14:50:22;6.70;;;4.22;;
36441;SDS011;73131;50.820;16.274;2024-01-07T14:53:23;12.15;;;5.65;;
36441;SDS011;73131;50.820;16.274;2024-01-07T14:56:24;10.77;;;5.32;;
36441;SDS011;73131;50.820;16.274;2024-01-07T14:59:25;9.98;;;6.05;;
36441;SDS011;73131;50.820;16.274;2024-01-07T15:02:31;10.95;;;5.40;;
36441;SDS011;73131;50.820;16.274;2024-01-07T15:05:36;10.88;;;5.10;;
36441;SDS011;73131;50.820;16.274;2024-01-07T15:08:36;9.80;;;5.25;;
36441;SDS011;73131;50.820;16.274;2024-01-07T15:11:38;13.65;;;6.60;;
36441;SDS011;73131;50.820;16.274;2024-01-07T15:14:43;13.68;;;5.53;;
36441;SDS011;73131;50.820;16.274;2024-01-07T15:17:44;14.30;;;5.97;;
36441;SDS011;73131;50.820;16.274;2024-01-07T15:20:47;12.88;;;5.90;;
36441;SDS011;73131;50.820;16.274;2024-01-07T15:23:49;11.38;;;6.43;;
36441;SDS011;73131;50.820;16.274;2024-01-07T15:26:49;8.73;;;4.80;;
36441;SDS011;73131;50.820;16.274;2024-01-07T15:29:56;11.98;;;6.93;;
36441;SDS011;73131;50.820;16.274;2024-01-07T15:32:57;10.38;;;5.50;;
36441;SDS011;73131;50.820;16.274;2024-01-07T15:35:58;10.57;;;5.50;;
36441;SDS011;73131;50.820;16.274;2024-01-07T15:38:59;11.55;;;4.82;;
36441;SDS011;73131;50.820;16.274;2024-01-07T15:45:12;9.23;;;4.63;;
36441;SDS011;73131;50.820;16.274;2024-01-07T15:48:55;9.27;;;4.25;;
36441;SDS011;73131;50.820;16.274;2024-01-07T15:51:58;7.97;;;4.57;;
36441;SDS011;73131;50.820;16.274;2024-01-07T15:54:59;7.38;;;5.57;;
36441;SDS011;73131;50.820;16.274;2024-01-07T15:58:01;11.75;;;5.75;;
36441;SDS011;73131;50.820;16.274;2024-01-07T16:01:03;10.30;;;5.30;;
36441;SDS011;73131;50.820;16.274;2024-01-07T16:04:04;12.60;;;5.75;;
36441;SDS011;73131;50.820;16.274;2024-01-07T16:07:05;13.68;;;5.80;;
36441;SDS011;73131;50.820;16.274;2024-01-07T16:10:07;8.40;;;3.90;;
36441;SDS011;73131;50.820;16.274;2024-01-07T16:13:09;11.45;;;4.80;;
36441;SDS011;73131;50.820;16.274;2024-01-07T16:16:10;9.68;;;4.10;;
36441;SDS011;73131;50.820;16.274;2024-01-07T16:19:13;12.02;;;5.65;;
36441;SDS011;73131;50.820;16.274;2024-01-07T16:22:17;13.05;;;5.10;;
36441;SDS011;73131;50.820;16.274;2024-01-07T16:25:20;9.73;;;4.05;;
36441;SDS011;73131;50.820;16.274;2024-01-07T16:28:24;11.10;;;5.40;;
36441;SDS011;73131;50.820;16.274;2024-01-07T16:31:24;11.65;;;5.47;;
36441;SDS011;73131;50.820;16.274;2024-01-07T16:34:28;26.77;;;11.50;;
36441;SDS011;73131;50.820;16.274;2024-01-07T16:37:31;9.60;;;5.22;;
36441;SDS011;73131;50.820;16.274;2024-01-07T16:40:35;10.52;;;5.93;;
36441;SDS011;73131;50.820;16.274;2024-01-07T16:43:38;11.77;;;5.28;;
36441;SDS011;73131;50.820;16.274;2024-01-07T16:46:39;9.32;;;5.10;;
36441;SDS011;73131;50.820;16.274;2024-01-07T16:49:41;7.90;;;4.10;;
36441;SDS011;73131;50.820;16.274;2024-01-07T16:52:42;13.60;;;4.63;;
36441;SDS011;73131;50.820;16.274;2024-01-07T16:55:43;9.13;;;4.25;;
36441;SDS011;73131;50.820;16.274;2024-01-07T16:58:44;10.65;;;5.18;;
36441;SDS011;73131;50.820;16.274;2024-01-07T17:01:45;8.88;;;5.05;;
36441;SDS011;73131;50.820;16.274;2024-01-07T17:04:46;10.15;;;5.00;;
36441;SDS011;73131;50.820;16.274;2024-01-07T17:07:49;10.75;;;5.13;;
36441;SDS011;73131;50.820;16.274;2024-01-07T17:10:55;13.40;;;5.03;;
36441;SDS011;73131;50.820;16.274;2024-01-07T17:13:59;9.68;;;4.88;;
36441;SDS011;73131;50.820;16.274;2024-01-07T17:17:00;10.52;;;4.53;;
36441;SDS011;73131;50.820;16.274;2024-01-07T17:20:01;11.80;;;5.32;;
36441;SDS011;73131;50.820;16.274;2024-01-07T17:23:03;12.38;;;5.95;;
36441;SDS011;73131;50.820;16.274;2024-01-07T17:26:05;12.95;;;6.72;;
36441;SDS011;73131;50.820;16.274;2024-01-07T17:29:07;11.07;;;6.18;;
36441;SDS011;73131;50.820;16.274;2024-01-07T17:32:08;12.02;;;5.53;;
36441;SDS011;73131;50.820;16.274;2024-01-07T17:35:11;15.68;;;7.05;;
36441;SDS011;73131;50.820;16.274;2024-01-07T17:38:12;13.55;;;6.20;;
36441;SDS011;73131;50.820;16.274;2024-01-07T17:41:19;10.05;;;4.95;;
36441;SDS011;73131;50.820;16.274;2024-01-07T17:44:19;13.07;;;5.25;;
36441;SDS011;73131;50.820;16.274;2024-01-07T17:47:30;7.60;;;3.80;;
36441;SDS011;73131;50.820;16.274;2024-01-07T17:50:37;9.77;;;4.07;;
36441;SDS011;73131;50.820;16.274;2024-01-07T17:53:40;11.60;;;5.32;;
36441;SDS011;73131;50.820;16.274;2024-01-07T17:56:42;8.02;;;4.97;;
36441;SDS011;73131;50.820;16.274;2024-01-07T17:59:44;10.90;;;6.07;;
36441;SDS011;73131;50.820;16.274;2024-01-07T18:02:47;11.35;;;5.53;;
36441;SDS011;73131;50.820;16.274;2024-01-07T18:05:48;13.13;;;5.47;;
36441;SDS011;73131;50.820;16.274;2024-01-07T18:08:51;12.75;;;5.85;;
36441;SDS011;73131;50.820;16.274;2024-01-07T18:11:56;9.20;;;4.68;;
36441;SDS011;73131;50.820;16.274;2024-01-07T18:14:59;9.75;;;5.25;;